sensor_id;sensor_type;location;lat;lon;timestamp;P1;durP1;ratioP1;P2;durP2;ratioP2
18425;SDS011;9340;48.756;9.226;2023-08-21T00:01:25;8.65;;;7.85;;
18425;SDS011;9340;48.756;9.226;2023-08-21T00:03:52;8.57;;;7.97;;
18425;SDS011;9340;48.756;9.226;2023-08-21T00:06:19;8.63;;;7.93;;
18425;SDS011;9340;48.756;9.226;2023-08-21T00:08:45;8.20;;;7.60;;
18425;SDS011;9340;48.756;9.226;2023-08-21T00:11:12;8.77;;;8.05;;
18425;SDS011;9340;48.756;9.226;2023-08-21T00:13:40;8.52;;;7.88;;
18425;SDS011;9340;48.756;9.226;2023-08-21T00:16:09;8.43;;;7.72;;
18425;SDS011;9340;48.756;9.226;2023-08-21T00:18:36;8.35;;;7.75;;
18425;SDS011;9340;48.756;9.226;2023-08-21T00:21:03;8.20;;;7.53;;
18425;SDS011;9340;48.756;9.226;2023-08-21T00:23:29;8.48;;;7.78;;
18425;SDS011;9340;48.756;9.226;2023-08-21T00:25:56;7.90;;;7.30;;
18425;SDS011;9340;48.756;9.226;2023-08-21T00:28:23;8.40;;;7.70;;
18425;SDS011;9340;48.756;9.226;2023-08-21T00:30:51;8.50;;;7.80;;
18425;SDS011;9340;48.756;9.226;2023-08-21T00:33:17;8.02;;;7.43;;
18425;SDS011;9340;48.756;9.226;2023-08-21T00:35:44;7.95;;;7.35;;
18425;SDS011;9340;48.756;9.226;2023-08-21T00:38:10;8.73;;;8.02;;
18425;SDS011;9340;48.756;9.226;2023-08-21T00:40:37;8.52;;;7.70;;
18425;SDS011;9340;48.756;9.226;2023-08-21T00:43:04;9.02;;;8.32;;
18425;SDS011;9340;48.756;9.226;2023-08-21T00:45:30;8.60;;;7.88;;
18425;SDS011;9340;48.756;9.226;2023-08-21T00:47:59;8.70;;;7.90;;
18425;SDS011;9340;48.756;9.226;2023-08-21T00:50:26;9.07;;;8.27;;
18425;SDS011;9340;48.756;9.226;2023-08-21T00:52:52;8.90;;;8.20;;
18425;SDS011;9340;48.756;9.226;2023-08-21T00:55:19;8.75;;;8.15;;
18425;SDS011;9340;48.756;9.226;2023-08-21T00:57:46;8.73;;;7.97;;
18425;SDS011;9340;48.756;9.226;2023-08-21T01:00:13;8.85;;;8.05;;
18425;SDS011;9340;48.756;9.226;2023-08-21T01:02:40;8.90;;;8.10;;
18425;SDS011;9340;48.756;9.226;2023-08-21T01:05:08;8.93;;;8.25;;
18425;SDS011;9340;48.756;9.226;2023-08-21T01:07:44;8.85;;;8.15;;
18425;SDS011;9340;48.756;9.226;2023-08-21T01:10:16;8.75;;;8.15;;
18425;SDS011;9340;48.756;9.226;2023-08-21T01:12:50;9.02;;;8.32;;
18425;SDS011;9340;48.756;9.226;2023-08-21T01:15:20;9.00;;;8.15;;
18425;SDS011;9340;48.756;9.226;2023-08-21T01:17:48;9.02;;;8.32;;
18425;SDS011;9340;48.756;9.226;2023-08-21T01:20:17;9.77;;;8.75;;
18425;SDS011;9340;48.756;9.226;2023-08-21T01:22:44;9.05;;;8.35;;
18425;SDS011;9340;48.756;9.226;2023-08-21T01:25:12;8.90;;;8.20;;
18425;SDS011;9340;48.756;9.226;2023-08-21T01:27:41;9.35;;;8.65;;
18425;SDS011;9340;48.756;9.226;2023-08-21T01:30:09;9.00;;;8.30;;
18425;SDS011;9340;48.756;9.226;2023-08-21T01:32:37;9.00;;;8.27;;
18425;SDS011;9340;48.756;9.226;2023-08-21T01:35:11;9.70;;;8.80;;
18425;SDS011;9340;48.756;9.226;2023-08-21T01:37:38;9.68;;;8.88;;
18425;SDS011;9340;48.756;9.226;2023-08-21T01:40:06;9.40;;;8.60;;
18425;SDS011;9340;48.756;9.226;2023-08-21T01:42:35;9.43;;;8.73;;
18425;SDS011;9340;48.756;9.226;2023-08-21T01:45:01;8.68;;;7.93;;
18425;SDS011;9340;48.756;9.226;2023-08-21T01:47:28;9.40;;;8.60;;
18425;SDS011;9340;48.756;9.226;2023-08-21T01:49:55;8.95;;;8.15;;
18425;SDS011;9340;48.756;9.226;2023-08-21T01:52:21;9.57;;;8.68;;
18425;SDS011;9340;48.756;9.226;2023-08-21T01:54:49;9.23;;;8.50;;
18425;SDS011;9340;48.756;9.226;2023-08-21T01:57:16;9.90;;;9.00;;
18425;SDS011;9340;48.756;9.226;2023-08-21T01:59:44;9.65;;;8.90;;
18425;SDS011;9340;48.756;9.226;2023-08-21T02:02:11;10.18;;;9.27;;
18425;SDS011;9340;48.756;9.226;2023-08-21T02:04:37;8.68;;;7.85;;
18425;SDS011;9340;48.756;9.226;2023-08-21T02:07:04;9.77;;;9.00;;
18425;SDS011;9340;48.756;9.226;2023-08-21T02:09:31;9.52;;;8.75;;
18425;SDS011;9340;48.756;9.226;2023-08-21T02:11:58;9.73;;;8.93;;
18425;SDS011;9340;48.756;9.226;2023-08-21T02:14:24;10.20;;;9.30;;
18425;SDS011;9340;48.756;9.226;2023-08-21T02:16:52;9.18;;;8.43;;
18425;SDS011;9340;48.756;9.226;2023-08-21T02:19:19;8.20;;;7.60;;
18425;SDS011;9340;48.756;9.226;2023-08-21T02:21:46;9.25;;;8.60;;
18425;SDS011;9340;48.756;9.226;2023-08-21T02:24:12;9.38;;;8.55;;
18425;SDS011;9340;48.756;9.226;2023-08-21T02:26:39;9.55;;;8.90;;
18425;SDS011;9340;48.756;9.226;2023-08-21T02:29:07;9.57;;;8.82;;
18425;SDS011;9340;48.756;9.226;2023-08-21T02:31:34;10.77;;;9.85;;
18425;SDS011;9340;48.756;9.226;2023-08-21T02:34:02;9.68;;;8.85;;
18425;SDS011;9340;48.756;9.226;2023-08-21T02:36:28;9.45;;;8.73;;
18425;SDS011;9340;48.756;9.226;2023-08-21T02:38:55;9.63;;;8.93;;
18425;SDS011;9340;48.756;9.226;2023-08-21T02:41:22;9.82;;;9.10;;
18425;SDS011;9340;48.756;9.226;2023-08-21T02:43:49;9.93;;;9.13;;
18425;SDS011;9340;48.756;9.226;2023-08-21T02:46:16;9.02;;;8.35;;
18425;SDS011;9340;48.756;9.226;2023-08-21T02:48:43;9.32;;;8.63;;
18425;SDS011;9340;48.756;9.226;2023-08-21T02:51:11;8.85;;;8.05;;
18425;SDS011;9340;48.756;9.226;2023-08-21T02:53:37;10.13;;;9.32;;
18425;SDS011;9340;48.756;9.226;2023-08-21T02:56:04;10.30;;;9.40;;
18425;SDS011;9340;48.756;9.226;2023-08-21T02:58:31;10.20;;;9.40;;
18425;SDS011;9340;48.756;9.226;2023-08-21T03:00:58;9.98;;;8.98;;
18425;SDS011;9340;48.756;9.226;2023-08-21T03:03:24;8.75;;;8.15;;
18425;SDS011;9340;48.756;9.226;2023-08-21T03:05:51;10.10;;;9.18;;
18425;SDS011;9340;48.756;9.226;2023-08-21T03:08:19;9.73;;;9.02;;
18425;SDS011;9340;48.756;9.226;2023-08-21T03:10:46;10.18;;;9.45;;
18425;SDS011;9340;48.756;9.226;2023-08-21T03:13:12;10.10;;;9.30;;
18425;SDS011;9340;48.756;9.226;2023-08-21T03:15:39;10.45;;;9.65;;
18425;SDS011;9340;48.756;9.226;2023-08-21T03:18:06;9.95;;;9.23;;
18425;SDS011;9340;48.756;9.226;2023-08-21T03:20:32;10.15;;;9.45;;
18425;SDS011;9340;48.756;9.226;2023-08-21T03:22:59;10.35;;;9.32;;
18425;SDS011;9340;48.756;9.226;2023-08-21T03:25:27;10.07;;;9.27;;
18425;SDS011;9340;48.756;9.226;2023-08-21T03:27:54;9.73;;;9.02;;
18425;SDS011;9340;48.756;9.226;2023-08-21T03:30:21;10.15;;;9.30;;
18425;SDS011;9340;48.756;9.226;2023-08-21T03:32:48;9.82;;;8.82;;
18425;SDS011;9340;48.756;9.226;2023-08-21T03:35:14;10.50;;;9.55;;
18425;SDS011;9340;48.756;9.226;2023-08-21T03:37:41;9.55;;;8.93;;
18425;SDS011;9340;48.756;9.226;2023-08-21T03:40:08;9.88;;;9.18;;
18425;SDS011;9340;48.756;9.226;2023-08-21T03:42:36;10.93;;;9.80;;
18425;SDS011;9340;48.756;9.226;2023-08-21T03:45:03;10.07;;;9.18;;
18425;SDS011;9340;48.756;9.226;2023-08-21T03:47:31;10.82;;;10.00;;
18425;SDS011;9340;48.756;9.226;2023-08-21T03:49:57;10.93;;;10.02;;
18425;SDS011;9340;48.756;9.226;2023-08-21T03:52:24;10.60;;;9.88;;
18425;SDS011;9340;48.756;9.226;2023-08-21T03:54:51;10.25;;;9.45;;
18425;SDS011;9340;48.756;9.226;2023-08-21T03:57:17;9.13;;;8.45;;
18425;SDS011;9340;48.756;9.226;2023-08-21T03:59:45;11.00;;;10.15;;
18425;SDS011;9340;48.756;9.226;2023-08-21T04:02:12;9.57;;;8.77;;
18425;SDS011;9340;48.756;9.226;2023-08-21T04:04:38;9.73;;;9.02;;
18425;SDS011;9340;48.756;9.226;2023-08-21T04:07:05;10.88;;;9.88;;
18425;SDS011;9340;48.756;9.226;2023-08-21T04:09:32;9.45;;;8.68;;
18425;SDS011;9340;48.756;9.226;2023-08-21T04:11:58;9.60;;;8.90;;
18425;SDS011;9340;48.756;9.226;2023-08-21T04:14:25;10.88;;;9.80;;
18425;SDS011;9340;48.756;9.226;2023-08-21T04:16:53;10.10;;;9.18;;
18425;SDS011;9340;48.756;9.226;2023-08-21T04:19:20;10.30;;;9.40;;
18425;SDS011;9340;48.756;9.226;2023-08-21T04:21:46;10.90;;;10.00;;
18425;SDS011;9340;48.756;9.226;2023-08-21T04:24:13;10.60;;;9.60;;
18425;SDS011;9340;48.756;9.226;2023-08-21T04:26:40;11.07;;;10.13;;
18425;SDS011;9340;48.756;9.226;2023-08-21T04:29:06;11.02;;;10.13;;
18425;SDS011;9340;48.756;9.226;2023-08-21T04:31:33;10.95;;;9.95;;
18425;SDS011;9340;48.756;9.226;2023-08-21T04:34:01;10.23;;;9.43;;
18425;SDS011;9340;48.756;9.226;2023-08-21T04:36:29;10.68;;;9.88;;
18425;SDS011;9340;48.756;9.226;2023-08-21T04:38:55;9.90;;;9.20;;
18425;SDS011;9340;48.756;9.226;2023-08-21T04:41:22;10.85;;;9.88;;
18425;SDS011;9340;48.756;9.226;2023-08-21T04:43:49;10.18;;;9.27;;
18425;SDS011;9340;48.756;9.226;2023-08-21T04:46:15;10.75;;;9.95;;
18425;SDS011;9340;48.756;9.226;2023-08-21T04:48:42;10.80;;;9.80;;
18425;SDS011;9340;48.756;9.226;2023-08-21T04:51:10;10.77;;;9.88;;
18425;SDS011;9340;48.756;9.226;2023-08-21T04:53:37;10.40;;;9.60;;
18425;SDS011;9340;48.756;9.226;2023-08-21T04:56:03;11.10;;;10.30;;
18425;SDS011;9340;48.756;9.226;2023-08-21T04:58:30;11.23;;;10.25;;
18425;SDS011;9340;48.756;9.226;2023-08-21T05:00:57;10.27;;;9.43;;
18425;SDS011;9340;48.756;9.226;2023-08-21T05:03:24;10.80;;;10.00;;
18425;SDS011;9340;48.756;9.226;2023-08-21T05:05:53;10.98;;;9.98;;
18425;SDS011;9340;48.756;9.226;2023-08-21T05:08:22;10.55;;;9.75;;
18425;SDS011;9340;48.756;9.226;2023-08-21T05:10:54;10.10;;;9.25;;
18425;SDS011;9340;48.756;9.226;2023-08-21T05:13:21;10.07;;;9.02;;
18425;SDS011;9340;48.756;9.226;2023-08-21T05:15:50;9.80;;;9.02;;
18425;SDS011;9340;48.756;9.226;2023-08-21T05:18:18;10.35;;;9.55;;
18425;SDS011;9340;48.756;9.226;2023-08-21T05:20:45;10.20;;;9.48;;
18425;SDS011;9340;48.756;9.226;2023-08-21T05:23:12;9.70;;;9.00;;
18425;SDS011;9340;48.756;9.226;2023-08-21T05:25:40;9.88;;;8.60;;
18425;SDS011;9340;48.756;9.226;2023-08-21T05:28:07;9.40;;;8.50;;
18425;SDS011;9340;48.756;9.226;2023-08-21T05:30:35;9.43;;;8.65;;
18425;SDS011;9340;48.756;9.226;2023-08-21T05:33:02;10.13;;;9.25;;
18425;SDS011;9340;48.756;9.226;2023-08-21T05:35:32;9.32;;;8.48;;
18425;SDS011;9340;48.756;9.226;2023-08-21T05:37:59;9.48;;;8.88;;
18425;SDS011;9340;48.756;9.226;2023-08-21T05:40:26;9.85;;;8.95;;
18425;SDS011;9340;48.756;9.226;2023-08-21T05:42:54;9.85;;;8.93;;
18425;SDS011;9340;48.756;9.226;2023-08-21T05:45:20;9.23;;;8.30;;
18425;SDS011;9340;48.756;9.226;2023-08-21T05:47:47;9.02;;;8.27;;
18425;SDS011;9340;48.756;9.226;2023-08-21T05:50:14;8.95;;;8.15;;
18425;SDS011;9340;48.756;9.226;2023-08-21T05:52:41;9.75;;;9.02;;
18425;SDS011;9340;48.756;9.226;2023-08-21T05:55:07;9.38;;;8.68;;
18425;SDS011;9340;48.756;9.226;2023-08-21T05:57:34;9.57;;;8.77;;
18425;SDS011;9340;48.756;9.226;2023-08-21T06:00:04;10.68;;;9.65;;
18425;SDS011;9340;48.756;9.226;2023-08-21T06:02:33;8.93;;;8.20;;
18425;SDS011;9340;48.756;9.226;2023-08-21T06:05:00;9.45;;;8.75;;
18425;SDS011;9340;48.756;9.226;2023-08-21T06:07:27;9.15;;;8.45;;
18425;SDS011;9340;48.756;9.226;2023-08-21T06:09:54;9.10;;;8.27;;
18425;SDS011;9340;48.756;9.226;2023-08-21T06:12:20;9.05;;;8.35;;
18425;SDS011;9340;48.756;9.226;2023-08-21T06:14:47;9.95;;;9.05;;
18425;SDS011;9340;48.756;9.226;2023-08-21T06:17:15;9.63;;;8.93;;
18425;SDS011;9340;48.756;9.226;2023-08-21T06:19:42;11.00;;;9.70;;
18425;SDS011;9340;48.756;9.226;2023-08-21T06:22:08;11.05;;;10.15;;
18425;SDS011;9340;48.756;9.226;2023-08-21T06:24:35;11.15;;;10.25;;
18425;SDS011;9340;48.756;9.226;2023-08-21T06:27:02;12.07;;;10.98;;
18425;SDS011;9340;48.756;9.226;2023-08-21T06:29:28;11.77;;;10.65;;
18425;SDS011;9340;48.756;9.226;2023-08-21T06:31:55;11.85;;;10.82;;
18425;SDS011;9340;48.756;9.226;2023-08-21T06:34:23;11.70;;;10.77;;
18425;SDS011;9340;48.756;9.226;2023-08-21T06:36:50;11.45;;;10.27;;
18425;SDS011;9340;48.756;9.226;2023-08-21T06:39:17;10.25;;;9.35;;
18425;SDS011;9340;48.756;9.226;2023-08-21T06:41:43;11.23;;;10.32;;
18425;SDS011;9340;48.756;9.226;2023-08-21T06:44:10;10.05;;;9.30;;
18425;SDS011;9340;48.756;9.226;2023-08-21T06:46:36;9.63;;;8.50;;
18425;SDS011;9340;48.756;9.226;2023-08-21T06:49:03;10.35;;;9.45;;
18425;SDS011;9340;48.756;9.226;2023-08-21T06:51:31;10.93;;;9.82;;
18425;SDS011;9340;48.756;9.226;2023-08-21T06:53:58;10.15;;;9.25;;
18425;SDS011;9340;48.756;9.226;2023-08-21T06:56:24;9.80;;;9.00;;
18425;SDS011;9340;48.756;9.226;2023-08-21T06:58:51;9.75;;;8.85;;
18425;SDS011;9340;48.756;9.226;2023-08-21T07:01:20;10.00;;;9.18;;
18425;SDS011;9340;48.756;9.226;2023-08-21T07:03:46;9.75;;;8.95;;
18425;SDS011;9340;48.756;9.226;2023-08-21T07:06:13;10.40;;;8.93;;
18425;SDS011;9340;48.756;9.226;2023-08-21T07:08:41;9.75;;;8.98;;
18425;SDS011;9340;48.756;9.226;2023-08-21T07:11:08;10.02;;;9.13;;
18425;SDS011;9340;48.756;9.226;2023-08-21T07:13:35;9.88;;;8.98;;
18425;SDS011;9340;48.756;9.226;2023-08-21T07:16:02;10.57;;;9.77;;
18425;SDS011;9340;48.756;9.226;2023-08-21T07:18:31;10.05;;;9.27;;
18425;SDS011;9340;48.756;9.226;2023-08-21T07:20:59;9.93;;;9.02;;
18425;SDS011;9340;48.756;9.226;2023-08-21T07:23:25;9.52;;;8.82;;
18425;SDS011;9340;48.756;9.226;2023-08-21T07:25:54;9.77;;;8.98;;
18425;SDS011;9340;48.756;9.226;2023-08-21T07:28:21;9.40;;;8.60;;
18425;SDS011;9340;48.756;9.226;2023-08-21T07:30:47;10.00;;;8.98;;
18425;SDS011;9340;48.756;9.226;2023-08-21T07:33:14;9.73;;;8.60;;
18425;SDS011;9340;48.756;9.226;2023-08-21T07:35:40;9.80;;;8.90;;
18425;SDS011;9340;48.756;9.226;2023-08-21T07:38:09;8.85;;;7.95;;
18425;SDS011;9340;48.756;9.226;2023-08-21T07:40:36;9.45;;;8.65;;
18425;SDS011;9340;48.756;9.226;2023-08-21T07:43:04;9.25;;;8.45;;
18425;SDS011;9340;48.756;9.226;2023-08-21T07:45:30;9.73;;;8.93;;
18425;SDS011;9340;48.756;9.226;2023-08-21T07:47:57;9.77;;;8.38;;
18425;SDS011;9340;48.756;9.226;2023-08-21T07:50:24;9.65;;;8.85;;
18425;SDS011;9340;48.756;9.226;2023-08-21T07:52:50;9.35;;;8.27;;
18425;SDS011;9340;48.756;9.226;2023-08-21T07:55:17;9.45;;;8.68;;
18425;SDS011;9340;48.756;9.226;2023-08-21T07:57:44;10.02;;;9.10;;
18425;SDS011;9340;48.756;9.226;2023-08-21T08:00:12;10.55;;;9.55;;
18425;SDS011;9340;48.756;9.226;2023-08-21T08:02:40;10.88;;;9.95;;
18425;SDS011;9340;48.756;9.226;2023-08-21T08:05:08;10.98;;;9.98;;
18425;SDS011;9340;48.756;9.226;2023-08-21T08:07:35;9.90;;;9.10;;
18425;SDS011;9340;48.756;9.226;2023-08-21T08:10:02;10.27;;;9.38;;
18425;SDS011;9340;48.756;9.226;2023-08-21T08:12:28;10.02;;;9.20;;
18425;SDS011;9340;48.756;9.226;2023-08-21T08:14:55;10.52;;;9.70;;
18425;SDS011;9340;48.756;9.226;2023-08-21T08:17:23;9.95;;;9.13;;
18425;SDS011;9340;48.756;9.226;2023-08-21T08:19:50;9.82;;;8.93;;
18425;SDS011;9340;48.756;9.226;2023-08-21T08:22:16;10.65;;;9.75;;
18425;SDS011;9340;48.756;9.226;2023-08-21T08:24:43;11.38;;;8.57;;
18425;SDS011;9340;48.756;9.226;2023-08-21T08:27:10;10.93;;;10.00;;
18425;SDS011;9340;48.756;9.226;2023-08-21T08:29:37;10.57;;;9.18;;
18425;SDS011;9340;48.756;9.226;2023-08-21T08:32:03;10.70;;;9.63;;
18425;SDS011;9340;48.756;9.226;2023-08-21T08:34:32;10.23;;;9.32;;
18425;SDS011;9340;48.756;9.226;2023-08-21T08:36:59;11.00;;;9.90;;
18425;SDS011;9340;48.756;9.226;2023-08-21T08:39:26;9.20;;;8.27;;
18425;SDS011;9340;48.756;9.226;2023-08-21T08:41:54;10.38;;;9.38;;
18425;SDS011;9340;48.756;9.226;2023-08-21T08:44:24;9.77;;;9.00;;
18425;SDS011;9340;48.756;9.226;2023-08-21T08:46:52;9.85;;;8.95;;
18425;SDS011;9340;48.756;9.226;2023-08-21T08:49:18;9.50;;;8.60;;
18425;SDS011;9340;48.756;9.226;2023-08-21T08:51:48;9.93;;;9.13;;
18425;SDS011;9340;48.756;9.226;2023-08-21T08:54:16;10.15;;;9.35;;
18425;SDS011;9340;48.756;9.226;2023-08-21T08:56:44;10.20;;;9.15;;
18425;SDS011;9340;48.756;9.226;2023-08-21T08:59:11;11.95;;;9.75;;
18425;SDS011;9340;48.756;9.226;2023-08-21T09:01:39;10.27;;;9.27;;
18425;SDS011;9340;48.756;9.226;2023-08-21T09:04:06;10.50;;;9.40;;
18425;SDS011;9340;48.756;9.226;2023-08-21T09:06:33;10.65;;;9.57;;
18425;SDS011;9340;48.756;9.226;2023-08-21T09:09:01;10.88;;;9.77;;
18425;SDS011;9340;48.756;9.226;2023-08-21T09:11:28;10.35;;;9.35;;
18425;SDS011;9340;48.756;9.226;2023-08-21T09:13:56;10.13;;;9.25;;
18425;SDS011;9340;48.756;9.226;2023-08-21T09:16:24;10.43;;;9.60;;
18425;SDS011;9340;48.756;9.226;2023-08-21T09:18:51;9.55;;;8.63;;
18425;SDS011;9340;48.756;9.226;2023-08-21T09:21:20;9.77;;;8.98;;
18425;SDS011;9340;48.756;9.226;2023-08-21T09:23:48;9.70;;;8.82;;
18425;SDS011;9340;48.756;9.226;2023-08-21T09:26:23;9.70;;;8.63;;
18425;SDS011;9340;48.756;9.226;2023-08-21T09:28:51;9.23;;;8.15;;
18425;SDS011;9340;48.756;9.226;2023-08-21T09:31:21;9.38;;;8.52;;
18425;SDS011;9340;48.756;9.226;2023-08-21T09:33:54;8.00;;;7.22;;
18425;SDS011;9340;48.756;9.226;2023-08-21T09:36:21;8.98;;;8.27;;
18425;SDS011;9340;48.756;9.226;2023-08-21T09:38:48;9.15;;;8.45;;
18425;SDS011;9340;48.756;9.226;2023-08-21T09:41:18;9.68;;;8.68;;
18425;SDS011;9340;48.756;9.226;2023-08-21T09:43:47;9.75;;;8.85;;
18425;SDS011;9340;48.756;9.226;2023-08-21T09:46:14;9.43;;;8.50;;
18425;SDS011;9340;48.756;9.226;2023-08-21T09:48:41;8.88;;;8.18;;
18425;SDS011;9340;48.756;9.226;2023-08-21T09:51:09;9.20;;;8.40;;
18425;SDS011;9340;48.756;9.226;2023-08-21T09:53:36;9.30;;;8.43;;
18425;SDS011;9340;48.756;9.226;2023-08-21T09:56:04;8.60;;;7.90;;
18425;SDS011;9340;48.756;9.226;2023-08-21T09:58:31;8.13;;;7.43;;
18425;SDS011;9340;48.756;9.226;2023-08-21T10:00:59;9.02;;;8.23;;
18425;SDS011;9340;48.756;9.226;2023-08-21T10:03:31;6.82;;;6.22;;
18425;SDS011;9340;48.756;9.226;2023-08-21T10:05:58;6.85;;;6.30;;
18425;SDS011;9340;48.756;9.226;2023-08-21T10:08:26;8.23;;;7.50;;
18425;SDS011;9340;48.756;9.226;2023-08-21T10:10:54;7.78;;;7.07;;
18425;SDS011;9340;48.756;9.226;2023-08-21T10:13:22;8.20;;;7.40;;
18425;SDS011;9340;48.756;9.226;2023-08-21T10:15:49;8.02;;;7.10;;
18425;SDS011;9340;48.756;9.226;2023-08-21T10:18:21;7.88;;;7.35;;
18425;SDS011;9340;48.756;9.226;2023-08-21T10:20:49;8.27;;;7.50;;
18425;SDS011;9340;48.756;9.226;2023-08-21T10:23:23;10.85;;;8.15;;
18425;SDS011;9340;48.756;9.226;2023-08-21T10:25:54;8.07;;;7.25;;
18425;SDS011;9340;48.756;9.226;2023-08-21T10:28:21;8.18;;;7.57;;
18425;SDS011;9340;48.756;9.226;2023-08-21T10:30:48;7.88;;;7.00;;
18425;SDS011;9340;48.756;9.226;2023-08-21T10:33:16;7.50;;;6.90;;
18425;SDS011;9340;48.756;9.226;2023-08-21T10:35:45;8.07;;;7.28;;
18425;SDS011;9340;48.756;9.226;2023-08-21T10:38:12;7.68;;;6.95;;
18425;SDS011;9340;48.756;9.226;2023-08-21T10:40:41;7.38;;;6.78;;
18425;SDS011;9340;48.756;9.226;2023-08-21T10:43:37;7.93;;;7.28;;
18425;SDS011;9340;48.756;9.226;2023-08-21T10:46:04;9.32;;;6.95;;
18425;SDS011;9340;48.756;9.226;2023-08-21T10:48:31;8.50;;;7.05;;
18425;SDS011;9340;48.756;9.226;2023-08-21T10:50:59;8.05;;;7.20;;
18425;SDS011;9340;48.756;9.226;2023-08-21T10:53:28;7.50;;;6.90;;
18425;SDS011;9340;48.756;9.226;2023-08-21T10:55:55;7.55;;;6.72;;
18425;SDS011;9340;48.756;9.226;2023-08-21T10:58:21;7.50;;;6.63;;
18425;SDS011;9340;48.756;9.226;2023-08-21T11:00:55;7.53;;;6.80;;
18425;SDS011;9340;48.756;9.226;2023-08-21T11:03:22;8.18;;;7.40;;
18425;SDS011;9340;48.756;9.226;2023-08-21T11:06:00;8.50;;;7.32;;
18425;SDS011;9340;48.756;9.226;2023-08-21T11:08:31;8.48;;;7.68;;
18425;SDS011;9340;48.756;9.226;2023-08-21T11:10:59;8.70;;;7.20;;
18425;SDS011;9340;48.756;9.226;2023-08-21T11:13:29;7.93;;;7.22;;
18425;SDS011;9340;48.756;9.226;2023-08-21T11:15:59;7.65;;;7.05;;
18425;SDS011;9340;48.756;9.226;2023-08-21T11:18:30;7.82;;;7.13;;
18425;SDS011;9340;48.756;9.226;2023-08-21T11:21:05;8.40;;;7.35;;
18425;SDS011;9340;48.756;9.226;2023-08-21T11:23:34;8.18;;;7.38;;
18425;SDS011;9340;48.756;9.226;2023-08-21T11:26:01;8.77;;;7.88;;
18425;SDS011;9340;48.756;9.226;2023-08-21T11:28:29;7.38;;;6.70;;
18425;SDS011;9340;48.756;9.226;2023-08-21T11:30:57;8.00;;;7.30;;
18425;SDS011;9340;48.756;9.226;2023-08-21T11:33:24;8.52;;;7.38;;
18425;SDS011;9340;48.756;9.226;2023-08-21T11:35:52;7.95;;;7.25;;
18425;SDS011;9340;48.756;9.226;2023-08-21T11:38:20;8.82;;;7.25;;
18425;SDS011;9340;48.756;9.226;2023-08-21T11:40:53;9.20;;;7.55;;
18425;SDS011;9340;48.756;9.226;2023-08-21T11:43:21;7.60;;;6.88;;
18425;SDS011;9340;48.756;9.226;2023-08-21T11:45:48;7.55;;;6.93;;
18425;SDS011;9340;48.756;9.226;2023-08-21T11:48:15;7.43;;;6.80;;
18425;SDS011;9340;48.756;9.226;2023-08-21T11:50:47;8.13;;;7.43;;
18425;SDS011;9340;48.756;9.226;2023-08-21T11:53:14;7.40;;;6.78;;
18425;SDS011;9340;48.756;9.226;2023-08-21T11:55:42;7.65;;;7.10;;
18425;SDS011;9340;48.756;9.226;2023-08-21T11:58:10;7.68;;;7.07;;
18425;SDS011;9340;48.756;9.226;2023-08-21T12:00:36;9.13;;;7.55;;
18425;SDS011;9340;48.756;9.226;2023-08-21T12:03:06;8.00;;;7.30;;
18425;SDS011;9340;48.756;9.226;2023-08-21T12:05:34;8.00;;;7.30;;
18425;SDS011;9340;48.756;9.226;2023-08-21T12:08:08;7.80;;;7.20;;
18425;SDS011;9340;48.756;9.226;2023-08-21T12:10:35;9.10;;;7.25;;
18425;SDS011;9340;48.756;9.226;2023-08-21T12:13:03;7.88;;;7.10;;
18425;SDS011;9340;48.756;9.226;2023-08-21T12:15:30;7.47;;;6.78;;
18425;SDS011;9340;48.756;9.226;2023-08-21T12:17:56;9.32;;;7.38;;
18425;SDS011;9340;48.756;9.226;2023-08-21T12:20:23;7.28;;;6.63;;
18425;SDS011;9340;48.756;9.226;2023-08-21T12:22:50;8.60;;;7.25;;
18425;SDS011;9340;48.756;9.226;2023-08-21T12:25:16;8.35;;;7.53;;
18425;SDS011;9340;48.756;9.226;2023-08-21T12:27:43;8.07;;;7.38;;
18425;SDS011;9340;48.756;9.226;2023-08-21T12:30:11;8.38;;;7.53;;
18425;SDS011;9340;48.756;9.226;2023-08-21T12:32:38;8.27;;;7.68;;
18425;SDS011;9340;48.756;9.226;2023-08-21T12:35:06;7.13;;;6.45;;
18425;SDS011;9340;48.756;9.226;2023-08-21T12:37:35;8.10;;;7.40;;
18425;SDS011;9340;48.756;9.226;2023-08-21T12:40:02;8.32;;;7.55;;
18425;SDS011;9340;48.756;9.226;2023-08-21T12:42:29;8.82;;;7.82;;
18425;SDS011;9340;48.756;9.226;2023-08-21T12:44:56;8.32;;;7.53;;
18425;SDS011;9340;48.756;9.226;2023-08-21T12:47:24;7.75;;;7.10;;
18425;SDS011;9340;48.756;9.226;2023-08-21T12:49:50;8.43;;;7.63;;
18425;SDS011;9340;48.756;9.226;2023-08-21T12:52:17;8.20;;;7.35;;
18425;SDS011;9340;48.756;9.226;2023-08-21T12:54:43;7.43;;;6.78;;
18425;SDS011;9340;48.756;9.226;2023-08-21T12:57:10;7.85;;;7.10;;
18425;SDS011;9340;48.756;9.226;2023-08-21T12:59:37;8.50;;;6.75;;
18425;SDS011;9340;48.756;9.226;2023-08-21T13:02:04;7.60;;;6.88;;
18425;SDS011;9340;48.756;9.226;2023-08-21T13:04:32;7.68;;;6.93;;
18425;SDS011;9340;48.756;9.226;2023-08-21T13:06:58;8.18;;;6.72;;
18425;SDS011;9340;48.756;9.226;2023-08-21T13:09:26;7.00;;;6.30;;
18425;SDS011;9340;48.756;9.226;2023-08-21T13:11:53;8.85;;;7.00;;
18425;SDS011;9340;48.756;9.226;2023-08-21T13:14:20;7.65;;;7.05;;
18425;SDS011;9340;48.756;9.226;2023-08-21T13:16:47;8.18;;;7.32;;
18425;SDS011;9340;48.756;9.226;2023-08-21T13:19:14;9.15;;;7.15;;
18425;SDS011;9340;48.756;9.226;2023-08-21T13:21:42;9.38;;;8.18;;
18425;SDS011;9340;48.756;9.226;2023-08-21T13:24:09;7.90;;;7.15;;
18425;SDS011;9340;48.756;9.226;2023-08-21T13:26:36;8.10;;;7.15;;
18425;SDS011;9340;48.756;9.226;2023-08-21T13:29:02;8.02;;;7.28;;
18425;SDS011;9340;48.756;9.226;2023-08-21T13:31:30;8.40;;;7.70;;
18425;SDS011;9340;48.756;9.226;2023-08-21T13:33:57;8.13;;;7.43;;
18425;SDS011;9340;48.756;9.226;2023-08-21T13:36:23;7.13;;;6.63;;
18425;SDS011;9340;48.756;9.226;2023-08-21T13:38:52;7.80;;;6.90;;
18425;SDS011;9340;48.756;9.226;2023-08-21T13:41:20;7.75;;;6.88;;
18425;SDS011;9340;48.756;9.226;2023-08-21T13:43:46;8.52;;;7.05;;
18425;SDS011;9340;48.756;9.226;2023-08-21T13:46:13;7.70;;;6.90;;
18425;SDS011;9340;48.756;9.226;2023-08-21T13:48:40;7.07;;;6.47;;
18425;SDS011;9340;48.756;9.226;2023-08-21T13:51:08;7.78;;;7.07;;
18425;SDS011;9340;48.756;9.226;2023-08-21T13:53:34;7.05;;;6.30;;
18425;SDS011;9340;48.756;9.226;2023-08-21T13:56:02;7.25;;;6.53;;
18425;SDS011;9340;48.756;9.226;2023-08-21T13:58:29;7.18;;;6.47;;
18425;SDS011;9340;48.756;9.226;2023-08-21T14:00:56;7.40;;;6.72;;
18425;SDS011;9340;48.756;9.226;2023-08-21T14:03:23;7.38;;;6.78;;
18425;SDS011;9340;48.756;9.226;2023-08-21T14:05:50;7.35;;;6.65;;
18425;SDS011;9340;48.756;9.226;2023-08-21T14:08:16;12.13;;;7.32;;
18425;SDS011;9340;48.756;9.226;2023-08-21T14:10:43;7.38;;;6.68;;
18425;SDS011;9340;48.756;9.226;2023-08-21T14:13:11;8.02;;;7.32;;
18425;SDS011;9340;48.756;9.226;2023-08-21T14:15:38;7.75;;;7.05;;
18425;SDS011;9340;48.756;9.226;2023-08-21T14:18:04;7.60;;;6.75;;
18425;SDS011;9340;48.756;9.226;2023-08-21T14:20:31;9.23;;;6.88;;
18425;SDS011;9340;48.756;9.226;2023-08-21T14:22:58;7.05;;;6.45;;
18425;SDS011;9340;48.756;9.226;2023-08-21T14:25:25;7.07;;;6.40;;
18425;SDS011;9340;48.756;9.226;2023-08-21T14:27:51;8.85;;;7.10;;
18425;SDS011;9340;48.756;9.226;2023-08-21T14:30:20;6.95;;;6.45;;
18425;SDS011;9340;48.756;9.226;2023-08-21T14:32:47;8.10;;;7.28;;
18425;SDS011;9340;48.756;9.226;2023-08-21T14:35:13;8.23;;;7.07;;
18425;SDS011;9340;48.756;9.226;2023-08-21T14:37:40;7.28;;;6.43;;
18425;SDS011;9340;48.756;9.226;2023-08-21T14:40:07;7.63;;;6.82;;
18425;SDS011;9340;48.756;9.226;2023-08-21T14:42:34;8.02;;;6.43;;
18425;SDS011;9340;48.756;9.226;2023-08-21T14:45:01;8.10;;;6.50;;
18425;SDS011;9340;48.756;9.226;2023-08-21T14:47:30;7.57;;;6.88;;
18425;SDS011;9340;48.756;9.226;2023-08-21T14:49:57;8.00;;;7.10;;
18425;SDS011;9340;48.756;9.226;2023-08-21T14:52:24;7.93;;;6.75;;
18425;SDS011;9340;48.756;9.226;2023-08-21T14:54:51;6.82;;;6.32;;
18425;SDS011;9340;48.756;9.226;2023-08-21T14:57:18;10.02;;;6.75;;
18425;SDS011;9340;48.756;9.226;2023-08-21T14:59:45;7.57;;;6.88;;